Time;durP1;ratioP1;P1;durP2;ratioP2;P2;SDS_P1;SDS_P2;PMS_P1;PMS_P2;Temp;Humidity;BMP_temperature;BMP_pressure;BME280_temperature;BME280_humidity;BME280_pressure;Samples;Min_cycle;Max_cycle;Signal;HPM_P1;HPM_P2
2023/09/26 00:02:09;;;;;;;6.00;2.05;;;19.30;91.30;;;;;;6306755;22;19999;-72
2023/09/26 00:04:35;;;;;;;4.80;1.48;;;19.20;91.30;;;;;;6306642;22;20056;-72
2023/09/26 00:07:02;;;;;;;5.72;1.70;;;19.20;91.30;;;;;;6306884;22;20329;-72
2023/09/26 00:09:30;;;;;;;6.35;1.77;;;19.20;91.30;;;;;;6306310;22;20004;-72
2023/09/26 00:11:56;;;;;;;4.78;1.70;;;19.20;91.20;;;;;;6306750;22;19999;-72
2023/09/26 00:14:22;;;;;;;5.50;1.60;;;19.20;91.20;;;;;;6306848;22;20018;-73
2023/09/26 00:16:47;;;;;;;3.47;1.40;;;19.20;91.30;;;;;;6306536;22;20007;-72
2023/09/26 00:19:13;;;;;;;3.90;1.70;;;19.20;91.20;;;;;;6305149;22;20456;-72
2023/09/26 00:21:41;;;;;;;6.55;2.15;;;19.10;91.20;;;;;;6305448;22;19995;-72
2023/09/26 00:24:07;;;;;;;3.97;1.70;;;19.10;91.40;;;;;;6305637;22;20022;-73
2023/09/26 00:26:32;;;;;;;4.38;1.65;;;19.10;91.40;;;;;;6306003;22;20006;-73
2023/09/26 00:28:58;;;;;;;3.75;2.15;;;19.10;91.50;;;;;;6305962;22;20003;-73
2023/09/26 00:31:24;;;;;;;3.55;1.70;;;19.10;91.50;;;;;;6305595;22;20002;-73
2023/09/26 00:33:49;;;;;;;10.43;2.00;;;19.10;91.50;;;;;;6305250;22;20019;-74
2023/09/26 00:36:15;;;;;;;4.70;1.70;;;19.10;91.50;;;;;;6305459;22;20022;-73
2023/09/26 00:38:41;;;;;;;4.32;1.65;;;19.10;91.70;;;;;;6305560;22;20045;-73
2023/09/26 00:41:07;;;;;;;4.88;1.70;;;19.10;91.60;;;;;;6305758;22;20006;-74
2023/09/26 00:43:35;;;;;;;4.05;1.95;;;19.10;91.70;;;;;;6305585;22;20003;-73
2023/09/26 00:46:03;;;;;;;3.20;1.58;;;19.10;91.60;;;;;;6305412;22;20070;-73
2023/09/26 00:48:29;;;;;;;4.35;1.98;;;19.10;91.60;;;;;;6305333;22;20010;-73
2023/09/26 00:50:56;;;;;;;3.30;1.80;;;19.10;91.60;;;;;;6305790;22;19999;-72
2023/09/26 00:53:23;;;;;;;6.00;2.40;;;19.10;91.60;;;;;;6305020;22;20007;-73
2023/09/26 00:55:57;;;;;;;6.85;2.60;;;19.10;91.60;;;;;;6277991;22;20325;-71
2023/09/26 00:58:23;;;;;;;4.40;2.63;;;19.10;91.60;;;;;;6303165;22;20007;-73
2023/09/26 01:00:51;;;;;;;8.23;2.88;;;19.10;91.60;;;;;;6302258;22;20322;-73
2023/09/26 01:03:17;;;;;;;5.28;3.20;;;19.10;91.50;;;;;;6301884;22;20034;-71
2023/09/26 01:05:43;;;;;;;6.72;3.38;;;19.10;91.50;;;;;;6304466;22;20003;-73
2023/09/26 01:08:09;;;;;;;7.35;3.42;;;19.10;91.40;;;;;;6304568;22;20105;-73
2023/09/26 01:10:36;;;;;;;7.53;4.25;;;19.20;91.30;;;;;;6304780;22;20004;-71
2023/09/26 01:13:02;;;;;;;8.80;4.25;;;19.20;91.20;;;;;;6304382;22;19996;-72
2023/09/26 01:15:39;;;;;;;10.25;4.25;;;19.30;91.20;;;;;;6303452;22;20030;-71
2023/09/26 01:18:16;;;;;;;8.65;4.35;;;19.30;91.10;;;;;;6250374;22;1186530;-72
2023/09/26 01:20:44;;;;;;;9.93;4.70;;;19.40;90.90;;;;;;6304189;22;20010;-72
2023/09/26 01:23:12;;;;;;;7.85;4.00;;;19.40;90.80;;;;;;6277768;22;20004;-72
2023/09/26 01:25:38;;;;;;;9.70;5.15;;;19.40;90.70;;;;;;6305747;22;20102;-73
2023/09/26 01:28:08;;;;;;;6.75;4.20;;;19.50;90.60;;;;;;6305794;22;20021;-73
2023/09/26 01:30:38;;;;;;;8.02;4.75;;;19.50;90.50;;;;;;6305075;22;19999;-73
2023/09/26 01:33:08;;;;;;;6.50;4.70;;;19.50;90.40;;;;;;6304609;22;20053;-71
2023/09/26 01:35:34;;;;;;;9.77;5.30;;;19.60;90.30;;;;;;6304826;22;20011;-73
2023/09/26 01:38:00;;;;;;;10.77;5.25;;;19.60;90.30;;;;;;6305921;22;19995;-72
2023/09/26 01:40:26;;;;;;;14.23;4.97;;;19.60;90.20;;;;;;6305430;22;20007;-73
2023/09/26 01:42:51;;;;;;;10.65;4.75;;;19.60;90.20;;;;;;6303747;22;20049;-71
2023/09/26 01:45:17;;;;;;;8.27;5.40;;;19.60;90.20;;;;;;6304523;22;19999;-71
2023/09/26 01:47:50;;;;;;;9.20;5.50;;;19.60;90.10;;;;;;6304092;22;20332;-71
2023/09/26 01:50:16;;;;;;;;;;;19.60;90.10;;;;;;6305339;22;20003;-70
2023/09/26 01:52:43;;;;;;;11.95;5.75;;;19.70;90.10;;;;;;6304534;22;19993;-74
2023/09/26 01:55:19;;;;;;;7.32;4.97;;;19.70;90.10;;;;;;6304181;22;20018;-73
2023/09/26 01:57:45;;;;;;;9.07;5.70;;;19.70;90.10;;;;;;6304659;22;20019;-73
2023/09/26 02:00:12;;;;;;;14.60;6.82;;;19.70;90.20;;;;;;6306286;22;20421;-73
2023/09/26 02:02:48;;;;;;;9.93;5.45;;;19.70;90.10;;;;;;6305051;22;19996;-73
2023/09/26 02:05:16;;;;;;;8.57;6.13;;;19.60;90.10;;;;;;6303874;22;20073;-73
2023/09/26 02:07:46;;;;;;;13.38;5.93;;;19.70;90.10;;;;;;6304661;22;20027;-73
2023/09/26 02:10:13;;;;;;;10.23;5.90;;;19.70;90.10;;;;;;6304728;22;20114;-74
2023/09/26 02:12:50;;;;;;;8.43;6.18;;;19.70;90.10;;;;;;6304578;22;20434;-71
2023/09/26 02:15:16;;;;;;;17.58;6.70;;;19.70;90.00;;;;;;6303337;22;20018;-73
2023/09/26 02:17:42;;;;;;;10.18;6.03;;;19.60;90.00;;;;;;6305683;22;20016;-73
2023/09/26 02:20:17;;;;;;;9.82;6.40;;;19.60;90.00;;;;;;6304489;22;20437;-73
2023/09/26 02:22:47;;;;;;;9.50;6.22;;;19.70;90.00;;;;;;6303936;22;20426;-74
2023/09/26 02:25:14;;;;;;;10.15;5.65;;;19.70;90.00;;;;;;6304401;22;20002;-73
2023/09/26 02:27:41;;;;;;;9.77;6.05;;;19.70;90.10;;;;;;6305241;22;20003;-74
2023/09/26 02:30:09;;;;;;;13.18;6.40;;;19.60;90.10;;;;;;6307535;22;20049;-73
2023/09/26 02:32:35;;;;;;;9.13;6.47;;;19.60;89.90;;;;;;6307174;22;20027;-73
2023/09/26 02:35:08;;;;;;;11.57;6.32;;;19.70;89.80;;;;;;6306332;22;20015;-73
2023/09/26 02:37:33;;;;;;;;;;;19.60;89.70;;;;;;6306241;22;20501;-73
2023/09/26 02:40:00;;;;;;;14.10;6.50;;;19.70;89.70;;;;;;6307069;22;19930;-73
2023/09/26 02:42:26;;;;;;;12.80;7.25;;;19.70;89.50;;;;;;6305846;22;20303;-73
2023/09/26 02:44:52;;;;;;;8.57;6.63;;;19.70;89.40;;;;;;6306452;22;20147;-73
2023/09/26 02:47:18;;;;;;;11.93;7.13;;;19.70;89.50;;;;;;6307121;22;20002;-74
2023/09/26 02:49:43;;;;;;;10.90;6.85;;;19.70;89.20;;;;;;6307110;22;20003;-73
2023/09/26 02:52:09;;;;;;;12.10;7.00;;;19.70;89.20;;;;;;6306766;22;19999;-73
2023/09/26 02:54:35;;;;;;;11.63;7.35;;;19.70;89.00;;;;;;6307189;22;20428;-72
2023/09/26 02:57:01;;;;;;;9.93;6.80;;;19.70;89.30;;;;;;6307106;22;20332;-74
2023/09/26 02:59:28;;;;;;;10.48;7.97;;;19.70;88.70;;;;;;6307499;22;20007;-73
2023/09/26 03:01:53;;;;;;;12.20;8.00;;;19.80;88.20;;;;;;6306028;22;20003;-73
2023/09/26 03:04:19;;;;;;;13.68;8.23;;;19.80;88.00;;;;;;6306836;22;20117;-72
2023/09/26 03:06:45;;;;;;;12.35;8.60;;;19.80;87.80;;;;;;6307249;22;20002;-73
2023/09/26 03:09:11;;;;;;;10.43;8.50;;;19.90;87.60;;;;;;6306680;22;20421;-73
2023/09/26 03:11:36;;;;;;;18.25;8.57;;;19.90;87.40;;;;;;6307112;22;20437;-73
2023/09/26 03:14:02;;;;;;;10.38;8.20;;;19.90;87.00;;;;;;6306617;22;20403;-73
2023/09/26 03:16:28;;;;;;;11.52;8.35;;;19.90;87.10;;;;;;6306973;22;19995;-74
2023/09/26 03:18:54;;;;;;;12.18;7.97;;;19.90;87.40;;;;;;6307797;22;20015;-73
2023/09/26 03:21:21;;;;;;;12.48;8.73;;;19.90;88.10;;;;;;6307025;22;20000;-73
2023/09/26 03:23:47;;;;;;;10.93;8.90;;;19.90;87.70;;;;;;6307706;22;20426;-73
2023/09/26 03:26:14;;;;;;;13.43;8.90;;;19.90;87.60;;;;;;6308016;22;20003;-73
2023/09/26 03:28:39;;;;;;;13.30;8.93;;;19.90;87.40;;;;;;6306416;22;19995;-74
2023/09/26 03:31:09;;;;;;;14.18;8.82;;;19.90;87.40;;;;;;6306414;22;20371;-73
2023/09/26 03:33:35;;;;;;;12.23;8.70;;;19.90;87.40;;;;;;6306493;22;20046;-74
2023/09/26 03:36:03;;;;;;;12.07;8.23;;;19.90;87.40;;;;;;6307379;22;20419;-73
2023/09/26 03:38:29;;;;;;;11.70;8.68;;;19.90;87.40;;;;;;6306743;22;20375;-72
2023/09/26 03:41:03;;;;;;;16.58;9.70;;;19.90;87.70;;;;;;6305743;22;20034;-73
2023/09/26 03:43:30;;;;;;;13.23;8.15;;;19.90;87.90;;;;;;6306048;22;19999;-73
2023/09/26 03:46:06;;;;;;;12.23;8.25;;;19.80;87.90;;;;;;6278462;22;20035;-73
2023/09/26 03:48:33;;;;;;;13.77;8.73;;;19.90;87.60;;;;;;6305111;22;20064;-73
2023/09/26 03:51:13;;;;;;;13.15;8.48;;;19.80;87.60;;;;;;6305388;22;19999;-73
2023/09/26 03:53:39;;;;;;;10.65;7.72;;;19.80;87.90;;;;;;6305306;22;20083;-73
2023/09/26 03:56:06;;;;;;;9.70;7.75;;;19.80;88.10;;;;;;6304919;22;20018;-73
2023/09/26 03:58:32;;;;;;;11.40;7.63;;;19.70;88.10;;;;;;6306382;22;20033;-73
2023/09/26 04:01:15;;;;;;;11.75;7.85;;;19.70;88.10;;;;;;6305925;22;20010;-72
2023/09/26 04:03:43;;;;;;;11.18;8.23;;;19.70;88.20;;;;;;6304338;22;20290;-73
2023/09/26 04:06:11;;;;;;;15.75;8.30;;;19.70;88.20;;;;;;6306150;22;20004;-73
2023/09/26 04:08:37;;;;;;;14.88;8.52;;;19.60;88.20;;;;;;6305541;22;20074;-73
2023/09/26 04:11:03;;;;;;;14.10;7.68;;;19.60;88.40;;;;;;6305446;22;20056;-72
2023/09/26 04:13:29;;;;;;;11.07;7.90;;;19.70;88.70;;;;;;6306476;22;20030;-73
2023/09/26 04:15:55;;;;;;;13.02;8.55;;;19.60;88.70;;;;;;6307894;22;20007;-72
2023/09/26 04:18:22;;;;;;;11.40;7.82;;;19.60;88.80;;;;;;6307561;22;20101;-72
2023/09/26 04:20:49;;;;;;;13.00;7.93;;;19.60;89.00;;;;;;6308179;22;20359;-73
2023/09/26 04:23:15;;;;;;;10.57;8.43;;;19.60;89.00;;;;;;6306706;22;20392;-73
2023/09/26 04:25:41;;;;;;;13.75;8.20;;;19.60;89.10;;;;;;6306160;22;20078;-73
2023/09/26 04:28:07;;;;;;;13.73;8.55;;;19.60;89.20;;;;;;6306167;22;20004;-73
2023/09/26 04:30:40;;;;;;;10.60;8.32;;;19.60;89.30;;;;;;6306230;22;20002;-73
2023/09/26 04:33:09;;;;;;;11.23;7.40;;;19.60;89.40;;;;;;6306218;22;20369;-74
2023/09/26 04:35:35;;;;;;;12.50;8.23;;;19.60;89.20;;;;;;6305429;22;20360;-73
2023/09/26 04:38:02;;;;;;;18.98;9.10;;;19.60;89.10;;;;;;6306694;22;19995;-73
2023/09/26 04:40:28;;;;;;;12.00;8.00;;;19.60;89.30;;;;;;6307233;22;19991;-72
2023/09/26 04:42:58;;;;;;;11.52;8.02;;;19.50;89.50;;;;;;6307477;22;20310;-73
2023/09/26 04:45:24;;;;;;;13.35;8.57;;;19.60;89.80;;;;;;6307254;22;20006;-74
2023/09/26 04:47:49;;;;;;;11.82;8.38;;;19.50;89.90;;;;;;6307391;22;20042;-73
2023/09/26 04:50:15;;;;;;;12.35;8.60;;;19.50;90.00;;;;;;6307261;22;20325;-72
2023/09/26 04:52:41;;;;;;;13.90;8.18;;;19.50;90.00;;;;;;6307591;22;20082;-72
2023/09/26 04:55:07;;;;;;;15.68;8.95;;;19.50;90.00;;;;;;6307579;22;20387;-73
2023/09/26 04:57:33;;;;;;;15.45;8.27;;;19.40;90.10;;;;;;6307228;22;20023;-72
2023/09/26 04:59:59;;;;;;;9.38;8.02;;;19.40;90.20;;;;;;6307576;22;20023;-73
2023/09/26 05:02:25;;;;;;;11.05;7.90;;;19.40;90.30;;;;;;6307304;22;20002;-73
2023/09/26 05:04:50;;;;;;;15.45;9.05;;;19.40;90.40;;;;;;6307525;22;20007;-73
2023/09/26 05:07:16;;;;;;;14.35;9.75;;;19.30;90.50;;;;;;6307324;22;20303;-73
2023/09/26 05:09:42;;;;;;;14.52;8.70;;;19.30;90.70;;;;;;6307173;22;20006;-73
2023/09/26 05:12:07;;;;;;;14.77;8.05;;;19.30;90.70;;;;;;6307174;22;19999;-73
2023/09/26 05:14:33;;;;;;;12.68;7.93;;;19.30;90.70;;;;;;6307325;22;20007;-73
2023/09/26 05:16:59;;;;;;;17.25;8.23;;;19.20;90.70;;;;;;6306969;22;20005;-73
2023/09/26 05:19:25;;;;;;;15.25;8.23;;;19.20;90.80;;;;;;6307051;22;20007;-73
2023/09/26 05:21:51;;;;;;;14.38;8.27;;;19.20;90.80;;;;;;6307381;22;20002;-73
2023/09/26 05:24:17;;;;;;;15.20;8.25;;;19.20;90.80;;;;;;6307198;22;20074;-73
2023/09/26 05:26:43;;;;;;;13.07;7.32;;;19.10;90.80;;;;;;6307327;22;20034;-72
2023/09/26 05:29:09;;;;;;;12.73;7.80;;;19.10;90.90;;;;;;6307343;22;20049;-73
2023/09/26 05:31:35;;;;;;;14.18;7.47;;;19.10;91.10;;;;;;6306527;22;20007;-73
2023/09/26 05:34:00;;;;;;;12.40;7.13;;;19.10;91.20;;;;;;6279253;22;20026;-73
2023/09/26 05:36:26;;;;;;;16.10;7.30;;;19.10;91.20;;;;;;6306513;22;19999;-73
2023/09/26 05:38:52;;;;;;;13.88;7.03;;;19.10;91.10;;;;;;6307023;22;20053;-73
2023/09/26 05:41:18;;;;;;;12.25;7.72;;;19.10;91.10;;;;;;6307370;22;20325;-72
2023/09/26 05:43:44;;;;;;;8.80;7.05;;;19.10;91.20;;;;;;6306453;22;20003;-72
2023/09/26 05:46:09;;;;;;;14.70;6.85;;;19.10;91.20;;;;;;6306236;22;20003;-73
2023/09/26 05:48:36;;;;;;;15.05;6.95;;;19.20;91.40;;;;;;6306681;22;20002;-72
2023/09/26 05:51:05;;;;;;;12.35;7.20;;;19.20;91.50;;;;;;6307227;22;20003;-72
2023/09/26 05:53:31;;;;;;;10.05;6.80;;;19.20;91.50;;;;;;6306780;22;20039;-73
2023/09/26 05:55:57;;;;;;;11.45;6.70;;;19.20;91.50;;;;;;6306077;22;20148;-72
2023/09/26 05:58:23;;;;;;;11.63;6.70;;;19.20;91.50;;;;;;6306777;22;20441;-73
2023/09/26 06:00:49;;;;;;;11.70;6.47;;;19.20;91.60;;;;;;6306916;22;20057;-70
2023/09/26 06:03:15;;;;;;;11.02;6.40;;;19.30;91.60;;;;;;6308194;22;20105;-70
2023/09/26 06:05:42;;;;;;;12.18;6.65;;;19.30;91.50;;;;;;6309063;22;20052;-71
2023/09/26 06:08:08;;;;;;;15.00;7.22;;;19.30;91.40;;;;;;6309008;22;19995;-71
2023/09/26 06:10:34;;;;;;;13.85;7.03;;;19.40;91.50;;;;;;6308906;22;20007;-71
2023/09/26 06:13:00;;;;;;;12.35;6.85;;;19.40;91.60;;;;;;6308930;22;20414;-70
2023/09/26 06:15:26;;;;;;;12.38;6.75;;;19.40;91.60;;;;;;6307970;22;20011;-72
2023/09/26 06:18:01;;;;;;;14.23;6.53;;;19.40;91.40;;;;;;6306286;22;20015;-71
2023/09/26 06:20:27;;;;;;;17.42;7.35;;;19.50;91.40;;;;;;6308020;22;20003;-71
2023/09/26 06:22:54;;;;;;;10.13;6.28;;;19.50;91.30;;;;;;6308411;22;20025;-71
2023/09/26 06:25:22;;;;;;;16.25;6.57;;;19.60;91.40;;;;;;6308152;22;20010;-71
2023/09/26 06:27:48;;;;;;;8.25;5.75;;;19.70;91.20;;;;;;6308008;22;20006;-71
2023/09/26 06:30:15;;;;;;;11.50;6.10;;;19.70;91.00;;;;;;6308199;22;20007;-71
2023/09/26 06:32:41;;;;;;;13.68;5.45;;;19.70;91.00;;;;;;6308254;22;20417;-71
2023/09/26 06:35:07;;;;;;;12.90;5.50;;;19.80;91.00;;;;;;6280250;22;20090;-70
2023/09/26 06:37:33;;;;;;;6.97;4.90;;;19.90;90.80;;;;;;6307634;22;19995;-70
2023/09/26 06:40:03;;;;;;;7.80;5.82;;;19.90;90.80;;;;;;6307713;22;20045;-71
2023/09/26 06:42:32;;;;;;;10.80;6.35;;;20.00;90.90;;;;;;6307778;22;19999;-70
2023/09/26 06:44:58;;;;;;;11.68;5.55;;;20.00;90.90;;;;;;6280698;22;20003;-70
2023/09/26 06:47:27;;;;;;;10.05;6.05;;;20.00;90.90;;;;;;6308071;22;20003;-72
2023/09/26 06:49:54;;;;;;;11.90;5.03;;;20.10;91.00;;;;;;6280664;22;20003;-70
2023/09/26 06:52:22;;;;;;;15.48;6.28;;;20.10;91.10;;;;;;6307896;22;19996;-71
2023/09/26 06:54:47;;;;;;;12.45;5.93;;;20.10;90.90;;;;;;6307476;22;20042;-72
2023/09/26 06:57:17;;;;;;;12.70;6.05;;;20.20;90.80;;;;;;6307392;22;20026;-71
2023/09/26 06:59:48;;;;;;;10.43;5.10;;;20.20;90.80;;;;;;6307382;22;19999;-70
2023/09/26 07:02:14;;;;;;;11.47;5.10;;;20.30;91.30;;;;;;6307895;22;20003;-70
2023/09/26 07:04:40;;;;;;;13.48;4.40;;;20.40;91.30;;;;;;6308102;22;20372;-70
2023/09/26 07:07:06;;;;;;;7.95;4.72;;;20.50;90.90;;;;;;6281213;22;20003;-69
2023/09/26 07:09:31;;;;;;;8.52;4.72;;;20.50;90.50;;;;;;6308666;22;20030;-70
2023/09/26 07:11:57;;;;;;;8.18;4.82;;;20.60;90.30;;;;;;6308124;22;20421;-71
2023/09/26 07:14:23;;;;;;;11.38;4.82;;;20.60;90.20;;;;;;6307836;22;20011;-70
2023/09/26 07:16:50;;;;;;;6.93;4.10;;;20.70;90.10;;;;;;6308290;22;20013;-70
2023/09/26 07:19:16;;;;;;;13.15;5.07;;;20.70;89.80;;;;;;6308049;22;20341;-71
2023/09/26 07:21:42;;;;;;;9.48;4.72;;;20.80;89.20;;;;;;6308000;22;19995;-71
2023/09/26 07:24:09;;;;;;;11.80;4.22;;;20.80;89.10;;;;;;6307637;22;20024;-71
2023/09/26 07:26:34;;;;;;;14.43;5.53;;;20.80;88.80;;;;;;6307892;22;20421;-70
2023/09/26 07:29:00;;;;;;;11.43;4.78;;;20.90;88.40;;;;;;6307115;22;20011;-71
2023/09/26 07:31:27;;;;;;;9.98;4.32;;;20.90;88.40;;;;;;6307189;22;20003;-71
2023/09/26 07:33:52;;;;;;;9.32;4.60;;;20.90;87.90;;;;;;6306981;22;20344;-71
2023/09/26 07:36:18;;;;;;;10.27;4.13;;;21.00;88.10;;;;;;6306787;22;20103;-71
2023/09/26 07:38:44;;;;;;;9.35;4.72;;;21.00;88.70;;;;;;6277580;22;20018;-70
2023/09/26 07:41:10;;;;;;;6.50;3.97;;;21.10;88.40;;;;;;6306576;22;19996;-70
2023/09/26 07:43:36;;;;;;;13.80;4.28;;;21.10;87.60;;;;;;6306366;22;20003;-68
2023/09/26 07:46:11;;;;;;;9.98;4.20;;;21.20;87.40;;;;;;6306600;22;20070;-70
2023/09/26 07:48:38;;;;;;;10.20;4.03;;;21.20;87.90;;;;;;6306583;22;20452;-69
2023/09/26 07:51:06;;;;;;;8.98;3.85;;;21.20;87.60;;;;;;6306408;22;20380;-70
2023/09/26 07:53:32;;;;;;;8.27;3.92;;;21.30;87.10;;;;;;6306639;22;20463;-71
2023/09/26 07:55:58;;;;;;;14.27;4.80;;;21.40;88.10;;;;;;6304485;22;19999;-71
2023/09/26 07:58:24;;;;;;;7.47;3.65;;;21.40;87.90;;;;;;6305323;22;20053;-71
2023/09/26 08:00:52;;;;;;;10.10;4.57;;;21.50;87.50;;;;;;6306978;22;20006;-71
2023/09/26 08:03:18;;;;;;;9.60;4.20;;;21.50;87.50;;;;;;6304731;22;20075;-71
2023/09/26 08:05:44;;;;;;;7.68;3.83;;;21.60;88.50;;;;;;6304532;22;20426;-71
2023/09/26 08:08:10;;;;;;;10.32;4.22;;;21.60;88.50;;;;;;6305436;22;20009;-71
2023/09/26 08:10:39;;;;;;;12.27;4.25;;;21.70;88.40;;;;;;6305442;22;20393;-71
2023/09/26 08:13:08;;;;;;;11.98;4.47;;;21.80;88.30;;;;;;6305383;22;20031;-71
2023/09/26 08:15:34;;;;;;;6.68;3.42;;;21.80;88.00;;;;;;6305027;22;20433;-71
2023/09/26 08:18:02;;;;;;;7.63;3.88;;;21.90;87.80;;;;;;6306608;22;20035;-71
2023/09/26 08:20:27;;;;;;;8.57;3.88;;;21.90;88.40;;;;;;6306807;22;20003;-70
2023/09/26 08:22:53;;;;;;;9.98;4.05;;;22.00;87.80;;;;;;6306811;22;20094;-71
2023/09/26 08:25:19;;;;;;;10.25;4.13;;;22.10;87.50;;;;;;6305470;22;20003;-71
2023/09/26 08:27:45;;;;;;;15.50;5.25;;;22.10;87.10;;;;;;6307046;22;20043;-71
2023/09/26 08:30:14;;;;;;;8.13;3.55;;;22.20;87.10;;;;;;6306984;22;20421;-71
2023/09/26 08:32:42;;;;;;;7.65;3.72;;;22.30;87.00;;;;;;6307096;22;19996;-71
2023/09/26 08:35:09;;;;;;;13.60;4.28;;;22.30;86.70;;;;;;6306991;22;20018;-71
2023/09/26 08:37:37;;;;;;;10.23;3.97;;;22.40;86.10;;;;;;6307126;22;20003;-70
2023/09/26 08:40:16;;;;;;;11.13;4.03;;;22.50;86.30;;;;;;6306660;22;20419;-71
2023/09/26 08:42:46;;;;;;;10.52;4.13;;;22.50;85.30;;;;;;6306683;22;20004;-71
2023/09/26 08:45:12;;;;;;;14.25;4.47;;;22.60;85.90;;;;;;6307016;22;20079;-70
2023/09/26 08:47:43;;;;;;;12.15;3.58;;;22.60;86.20;;;;;;6306969;22;20042;-71
2023/09/26 08:50:09;;;;;;;12.93;4.30;;;22.70;85.90;;;;;;6306891;22;20004;-71
2023/09/26 08:52:35;;;;;;;11.40;3.65;;;22.70;85.50;;;;;;6279661;22;20038;-70
2023/09/26 08:55:05;;;;;;;8.68;4.03;;;22.80;85.20;;;;;;6306704;22;20311;-71
2023/09/26 08:57:32;;;;;;;10.38;4.57;;;22.80;85.50;;;;;;6306500;22;20059;-71
2023/09/26 09:00:01;;;;;;;10.95;4.13;;;22.90;86.40;;;;;;6306578;22;20003;-71
2023/09/26 09:02:27;;;;;;;11.90;3.72;;;22.90;86.80;;;;;;6306643;22;20317;-71
2023/09/26 09:04:53;;;;;;;12.00;3.85;;;22.90;86.10;;;;;;6306605;22;19999;-71
2023/09/26 09:07:19;;;;;;;9.73;3.97;;;23.00;85.30;;;;;;6306769;22;20029;-70
2023/09/26 09:10:03;;;;;;;9.82;4.07;;;23.10;85.30;;;;;;6306970;22;20000;-70
2023/09/26 09:12:29;;;;;;;9.98;3.67;;;23.20;85.70;;;;;;6306650;22;20095;-71
2023/09/26 09:14:55;;;;;;;17.10;4.65;;;23.20;83.80;;;;;;6306442;22;20445;-71
2023/09/26 09:17:21;;;;;;;9.73;4.47;;;23.20;83.50;;;;;;6306493;22;20003;-71
2023/09/26 09:19:50;;;;;;;10.95;4.20;;;23.30;82.60;;;;;;6306793;22;20074;-70
2023/09/26 09:22:20;;;;;;;16.50;3.85;;;23.30;83.00;;;;;;6306712;22;20052;-70
2023/09/26 09:24:54;;;;;;;17.85;4.20;;;23.40;83.40;;;;;;6306399;22;20000;-70
2023/09/26 09:27:30;;;;;;;8.55;4.18;;;23.40;83.00;;;;;;6306494;22;20015;-71
2023/09/26 09:30:07;;;;;;;15.15;4.25;;;23.50;83.00;;;;;;6306869;22;20015;-71
2023/09/26 09:32:36;;;;;;;11.57;4.72;;;23.60;82.70;;;;;;6306750;22;20066;-71
2023/09/26 09:35:03;;;;;;;13.55;4.30;;;23.60;82.00;;;;;;6306381;22;20041;-71
2023/09/26 09:37:29;;;;;;;11.88;4.43;;;23.70;82.00;;;;;;6306394;22;19995;-71
2023/09/26 09:39:55;;;;;;;14.57;5.03;;;23.70;81.60;;;;;;6306699;22;20038;-71
2023/09/26 09:42:25;;;;;;;7.03;3.92;;;23.80;81.90;;;;;;6306562;22;20006;-71
2023/09/26 09:44:50;;;;;;;15.43;4.55;;;23.80;81.90;;;;;;6306727;22;20101;-71
2023/09/26 09:47:24;;;;;;;12.40;4.43;;;23.90;81.10;;;;;;6306712;22;20393;-71
2023/09/26 09:49:51;;;;;;;15.48;4.13;;;23.90;79.40;;;;;;6306338;22;20185;-71
2023/09/26 09:52:21;;;;;;;10.52;4.03;;;23.90;79.50;;;;;;6279035;22;20447;-71
2023/09/26 09:54:50;;;;;;;12.82;3.80;;;24.00;79.80;;;;;;6304075;22;20026;-71
2023/09/26 09:57:21;;;;;;;13.38;4.57;;;24.00;80.20;;;;;;6304973;22;19999;-71
2023/09/26 09:59:48;;;;;;;12.75;4.05;;;24.10;78.10;;;;;;6304879;22;20003;-71
2023/09/26 10:02:17;;;;;;;8.93;3.67;;;24.10;77.50;;;;;;6304236;22;20035;-70
2023/09/26 10:04:47;;;;;;;12.20;4.60;;;24.10;77.60;;;;;;6303772;22;20448;-70
2023/09/26 10:07:12;;;;;;;11.48;4.78;;;24.20;78.50;;;;;;6305249;22;20041;-71
2023/09/26 10:09:40;;;;;;;16.58;4.97;;;24.20;79.00;;;;;;6305718;22;20003;-70
2023/09/26 10:12:07;;;;;;;8.02;4.28;;;24.20;77.80;;;;;;6305962;22;19995;-71
2023/09/26 10:14:33;;;;;;;14.35;5.75;;;24.30;76.10;;;;;;6305429;22;20008;-70
2023/09/26 10:16:59;;;;;;;9.43;4.68;;;24.30;76.30;;;;;;6304446;22;19995;-71
2023/09/26 10:19:28;;;;;;;12.00;4.30;;;24.40;76.80;;;;;;6303365;22;21109;-70
2023/09/26 10:22:12;;;;;;;10.52;4.45;;;24.40;78.20;;;;;;6303492;22;20003;-71
2023/09/26 10:24:46;;;;;;;13.43;4.57;;;24.40;77.30;;;;;;6300730;22;19995;-71
2023/09/26 10:27:12;;;;;;;12.35;4.13;;;24.50;77.60;;;;;;6275484;22;20034;-70
2023/09/26 10:29:38;;;;;;;14.65;3.95;;;24.50;78.00;;;;;;6303316;22;19999;-69
2023/09/26 10:32:06;;;;;;;11.55;3.90;;;24.60;77.70;;;;;;6304090;22;20029;-70
2023/09/26 10:34:38;;;;;;;16.15;3.90;;;24.60;77.30;;;;;;6305556;22;20038;-70
2023/09/26 10:37:08;;;;;;;12.77;4.20;;;24.60;78.50;;;;;;6305515;22;20441;-70
2023/09/26 10:39:41;;;;;;;17.38;4.35;;;24.70;78.20;;;;;;6305129;22;20217;-71
2023/09/26 10:42:21;;;;;;;10.90;3.85;;;24.70;77.10;;;;;;6304751;22;20061;-71
2023/09/26 10:44:49;;;;;;;14.65;4.03;;;24.70;77.50;;;;;;6278380;22;20379;-71
2023/09/26 10:47:20;;;;;;;13.77;3.80;;;24.70;77.40;;;;;;6305986;22;19999;-70
2023/09/26 10:49:46;;;;;;;13.02;3.60;;;24.80;78.00;;;;;;6307940;22;20009;-71
2023/09/26 10:52:12;;;;;;;8.85;3.42;;;24.80;76.80;;;;;;6307774;22;20414;-70
2023/09/26 10:54:41;;;;;;;11.55;4.05;;;24.80;76.10;;;;;;6307803;22;20011;-70
2023/09/26 10:57:07;;;;;;;13.00;4.45;;;24.90;76.80;;;;;;6308103;22;20010;-70
2023/09/26 10:59:34;;;;;;;8.82;3.45;;;24.90;77.50;;;;;;6307767;22;20011;-71
2023/09/26 11:02:01;;;;;;;15.88;4.13;;;24.90;77.60;;;;;;6307499;22;20025;-70
2023/09/26 11:04:31;;;;;;;10.75;3.67;;;24.90;77.10;;;;;;6307856;22;20014;-70
2023/09/26 11:06:58;;;;;;;9.40;3.20;;;24.90;76.80;;;;;;6307801;22;20004;-69
2023/09/26 11:09:24;;;;;;;7.10;3.70;;;25.00;76.20;;;;;;6308143;22;20007;-70
2023/09/26 11:11:50;;;;;;;11.40;3.58;;;25.00;75.60;;;;;;6308058;22;20389;-70
2023/09/26 11:14:17;;;;;;;10.98;3.67;;;25.10;76.00;;;;;;6306364;22;20022;-71
2023/09/26 11:16:43;;;;;;;9.88;3.53;;;25.10;74.60;;;;;;6305432;22;20456;-71
2023/09/26 11:19:11;;;;;;;9.32;3.90;;;25.10;74.50;;;;;;6304977;22;20025;-71
2023/09/26 11:21:38;;;;;;;12.18;3.65;;;25.10;74.60;;;;;;6304369;22;20022;-71
2023/09/26 11:24:22;;;;;;;8.15;3.42;;;25.10;74.50;;;;;;6305966;22;20002;-71
2023/09/26 11:26:49;;;;;;;14.23;3.45;;;25.20;74.50;;;;;;6275292;22;20007;-71
2023/09/26 11:29:16;;;;;;;10.32;3.30;;;25.20;74.00;;;;;;6303345;22;20087;-71
2023/09/26 11:31:44;;;;;;;12.52;3.60;;;25.20;74.60;;;;;;6302776;22;20074;-71
2023/09/26 11:34:10;;;;;;;9.30;3.63;;;25.20;73.70;;;;;;6302747;22;20045;-71
2023/09/26 11:36:39;;;;;;;8.70;3.80;;;25.30;74.20;;;;;;6301959;22;20000;-71
2023/09/26 11:39:06;;;;;;;11.65;4.00;;;25.30;74.40;;;;;;6275138;22;20009;-70
2023/09/26 11:41:32;;;;;;;10.75;3.92;;;25.40;73.90;;;;;;6303006;22;20003;-72
2023/09/26 11:44:15;;;;;;;11.98;3.95;;;25.40;73.10;;;;;;6303170;22;20472;-71
2023/09/26 11:46:49;;;;;;;9.60;3.42;;;25.50;73.50;;;;;;6303140;22;20007;-71
2023/09/26 11:49:16;;;;;;;9.98;3.55;;;25.50;71.20;;;;;;6303190;22;20382;-72
2023/09/26 11:51:42;;;;;;;10.13;3.70;;;25.50;71.40;;;;;;6301836;22;20083;-70
2023/09/26 11:54:09;;;;;;;13.43;3.83;;;25.50;71.30;;;;;;6302202;22;20057;-71
2023/09/26 11:56:36;;;;;;;8.82;3.00;;;25.60;70.70;;;;;;6301492;22;20082;-71
2023/09/26 11:59:05;;;;;;;13.02;3.67;;;25.60;71.20;;;;;;6303083;22;20003;-71
2023/09/26 12:01:32;;;;;;;10.10;3.30;;;25.60;72.00;;;;;;6301995;22;20008;-71
2023/09/26 12:04:05;;;;;;;14.60;3.40;;;25.70;71.90;;;;;;6303828;22;20003;-71
2023/09/26 12:06:31;;;;;;;11.30;3.72;;;25.70;70.90;;;;;;6303471;22;20034;-70
2023/09/26 12:08:57;;;;;;;15.80;3.90;;;25.70;70.10;;;;;;6302047;22;20007;-71
2023/09/26 12:11:24;;;;;;;14.38;3.80;;;25.70;70.70;;;;;;6303687;22;19999;-72
2023/09/26 12:13:50;;;;;;;7.43;3.08;;;25.70;69.20;;;;;;6303908;22;20007;-71
2023/09/26 12:16:15;;;;;;;10.80;3.40;;;25.80;68.50;;;;;;6305490;22;20076;-71
2023/09/26 12:18:41;;;;;;;20.17;3.22;;;25.80;68.50;;;;;;6306316;22;20011;-71
2023/09/26 12:21:07;;;;;;;18.02;3.30;;;25.90;68.60;;;;;;6306403;22;20078;-71
2023/09/26 12:23:33;;;;;;;9.20;3.50;;;25.90;68.70;;;;;;6307206;22;20000;-71
2023/09/26 12:25:59;;;;;;;14.30;4.22;;;25.90;69.80;;;;;;6307267;22;20008;-70
2023/09/26 12:28:25;;;;;;;10.82;3.42;;;25.90;69.70;;;;;;6306375;22;20066;-70
2023/09/26 12:30:52;;;;;;;11.85;3.92;;;26.00;69.10;;;;;;6306942;22;20004;-71
2023/09/26 12:33:18;;;;;;;8.48;3.13;;;26.00;69.30;;;;;;6279157;22;20004;-71
2023/09/26 12:35:44;;;;;;;11.75;3.80;;;26.00;69.80;;;;;;6306712;22;20089;-70
2023/09/26 12:38:10;;;;;;;12.27;3.25;;;26.00;68.70;;;;;;6279313;22;19999;-71
2023/09/26 12:40:37;;;;;;;9.30;3.25;;;26.00;68.90;;;;;;6306551;22;20003;-70
2023/09/26 12:43:04;;;;;;;8.85;3.70;;;26.00;68.50;;;;;;6306670;22;19999;-71